sensor_id;sensor_type;location;lat;lon;timestamp;temperature;humidity
17992;DHT22;9121;50.926;5.340;2023-02-28T00:02:25;2.10;1.00
17992;DHT22;9121;50.926;5.340;2023-02-28T00:04:52;2.20;1.00
17992;DHT22;9121;50.926;5.340;2023-02-28T00:07:26;2.20;1.00
17992;DHT22;9121;50.926;5.340;2023-02-28T00:09:53;2.20;1.00
17992;DHT22;9121;50.926;5.340;2023-02-28T00:12:20;2.20;1.00
17992;DHT22;9121;50.926;5.340;2023-02-28T00:14:48;2.10;1.00
17992;DHT22;9121;50.926;5.340;2023-02-28T00:17:16;2.10;1.00
17992;DHT22;9121;50.926;5.340;2023-02-28T00:19:47;2.10;1.00
17992;DHT22;9121;50.926;5.340;2023-02-28T00:22:15;2.10;1.00
17992;DHT22;9121;50.926;5.340;2023-02-28T00:24:42;2.10;1.00
17992;DHT22;9121;50.926;5.340;2023-02-28T00:27:09;2.10;1.00
17992;DHT22;9121;50.926;5.340;2023-02-28T00:29:36;2.10;1.00
17992;DHT22;9121;50.926;5.340;2023-02-28T00:32:04;2.00;1.00
17992;DHT22;9121;50.926;5.340;2023-02-28T00:34:33;2.00;1.00
17992;DHT22;9121;50.926;5.340;2023-02-28T00:37:03;1.90;1.00
17992;DHT22;9121;50.926;5.340;2023-02-28T00:39:31;1.80;1.00
17992;DHT22;9121;50.926;5.340;2023-02-28T00:41:59;1.70;1.00
17992;DHT22;9121;50.926;5.340;2023-02-28T00:44:26;1.80;1.00
17992;DHT22;9121;50.926;5.340;2023-02-28T00:46:53;1.70;1.00
17992;DHT22;9121;50.926;5.340;2023-02-28T00:49:22;1.70;1.00
17992;DHT22;9121;50.926;5.340;2023-02-28T00:51:50;1.70;1.00
17992;DHT22;9121;50.926;5.340;2023-02-28T00:54:17;1.70;1.00
17992;DHT22;9121;50.926;5.340;2023-02-28T00:56:44;1.70;1.00
17992;DHT22;9121;50.926;5.340;2023-02-28T00:59:12;1.70;1.00
17992;DHT22;9121;50.926;5.340;2023-02-28T01:01:40;1.70;1.00
17992;DHT22;9121;50.926;5.340;2023-02-28T01:04:07;1.60;1.00
17992;DHT22;9121;50.926;5.340;2023-02-28T01:06:34;1.60;1.00
17992;DHT22;9121;50.926;5.340;2023-02-28T01:09:03;1.60;1.00
17992;DHT22;9121;50.926;5.340;2023-02-28T01:11:31;1.60;1.00
17992;DHT22;9121;50.926;5.340;2023-02-28T01:13:58;1.60;1.00
17992;DHT22;9121;50.926;5.340;2023-02-28T01:16:26;1.60;1.00
17992;DHT22;9121;50.926;5.340;2023-02-28T01:18:53;1.50;1.00
17992;DHT22;9121;50.926;5.340;2023-02-28T01:21:21;1.50;1.00
17992;DHT22;9121;50.926;5.340;2023-02-28T01:23:48;1.50;1.00
17992;DHT22;9121;50.926;5.340;2023-02-28T01:26:19;1.50;1.00
17992;DHT22;9121;50.926;5.340;2023-02-28T01:28:48;1.50;1.00
17992;DHT22;9121;50.926;5.340;2023-02-28T01:31:15;1.50;1.00
17992;DHT22;9121;50.926;5.340;2023-02-28T01:33:43;1.50;1.00
17992;DHT22;9121;50.926;5.340;2023-02-28T01:36:13;1.50;1.00
17992;DHT22;9121;50.926;5.340;2023-02-28T01:38:41;1.60;1.00
17992;DHT22;9121;50.926;5.340;2023-02-28T01:41:10;1.60;1.00
17992;DHT22;9121;50.926;5.340;2023-02-28T01:43:55;1.50;1.00
17992;DHT22;9121;50.926;5.340;2023-02-28T01:46:23;1.50;1.00
17992;DHT22;9121;50.926;5.340;2023-02-28T01:48:52;1.50;1.00
17992;DHT22;9121;50.926;5.340;2023-02-28T01:51:23;1.60;1.00
17992;DHT22;9121;50.926;5.340;2023-02-28T01:53:56;1.60;1.00
17992;DHT22;9121;50.926;5.340;2023-02-28T01:56:28;1.70;1.00
17992;DHT22;9121;50.926;5.340;2023-02-28T01:58:57;1.70;1.00
17992;DHT22;9121;50.926;5.340;2023-02-28T02:01:27;1.80;1.00
17992;DHT22;9121;50.926;5.340;2023-02-28T02:03:57;1.80;1.00
17992;DHT22;9121;50.926;5.340;2023-02-28T02:06:27;1.80;1.00
17992;DHT22;9121;50.926;5.340;2023-02-28T02:08:55;1.80;1.00
17992;DHT22;9121;50.926;5.340;2023-02-28T02:11:23;1.70;1.00
17992;DHT22;9121;50.926;5.340;2023-02-28T02:14:22;1.60;1.00
17992;DHT22;9121;50.926;5.340;2023-02-28T02:17:03;1.60;1.00
17992;DHT22;9121;50.926;5.340;2023-02-28T02:23:09;1.60;1.00
17992;DHT22;9121;50.926;5.340;2023-02-28T02:25:42;1.50;1.00
17992;DHT22;9121;50.926;5.340;2023-02-28T02:28:34;1.50;1.00
17992;DHT22;9121;50.926;5.340;2023-02-28T02:31:29;1.40;1.00
17992;DHT22;9121;50.926;5.340;2023-02-28T02:34:20;1.40;1.00
17992;DHT22;9121;50.926;5.340;2023-02-28T02:36:55;1.30;1.00
17992;DHT22;9121;50.926;5.340;2023-02-28T02:39:31;1.30;1.00
17992;DHT22;9121;50.926;5.340;2023-02-28T02:42:02;1.30;1.00
17992;DHT22;9121;50.926;5.340;2023-02-28T02:44:34;1.20;1.00
17992;DHT22;9121;50.926;5.340;2023-02-28T02:47:06;1.10;1.00
17992;DHT22;9121;50.926;5.340;2023-02-28T02:49:37;1.10;1.00
17992;DHT22;9121;50.926;5.340;2023-02-28T02:52:08;1.00;1.00
17992;DHT22;9121;50.926;5.340;2023-02-28T02:54:37;1.10;1.00
17992;DHT22;9121;50.926;5.340;2023-02-28T02:57:09;1.00;1.00
17992;DHT22;9121;50.926;5.340;2023-02-28T02:59:39;1.00;1.00
17992;DHT22;9121;50.926;5.340;2023-02-28T03:02:08;1.00;1.40
17992;DHT22;9121;50.926;5.340;2023-02-28T03:04:42;0.90;2.60
17992;DHT22;9121;50.926;5.340;2023-02-28T03:07:10;0.90;8.50
17992;DHT22;9121;50.926;5.340;2023-02-28T03:09:37;0.90;10.40
17992;DHT22;9121;50.926;5.340;2023-02-28T03:12:08;1.00;10.00
17992;DHT22;9121;50.926;5.340;2023-02-28T03:14:48;1.10;4.70
17992;DHT22;9121;50.926;5.340;2023-02-28T03:17:31;1.10;1.00
17992;DHT22;9121;50.926;5.340;2023-02-28T03:20:07;1.10;1.00
17992;DHT22;9121;50.926;5.340;2023-02-28T03:22:46;1.10;1.00
17992;DHT22;9121;50.926;5.340;2023-02-28T03:25:22;1.10;1.00
17992;DHT22;9121;50.926;5.340;2023-02-28T03:28:04;1.10;1.00
17992;DHT22;9121;50.926;5.340;2023-02-28T03:30:36;1.10;1.00
17992;DHT22;9121;50.926;5.340;2023-02-28T03:33:08;1.10;1.00
17992;DHT22;9121;50.926;5.340;2023-02-28T03:35:40;1.10;1.00
17992;DHT22;9121;50.926;5.340;2023-02-28T03:38:14;1.30;1.00
17992;DHT22;9121;50.926;5.340;2023-02-28T03:40:46;1.30;1.00
17992;DHT22;9121;50.926;5.340;2023-02-28T03:43:20;1.30;1.00
17992;DHT22;9121;50.926;5.340;2023-02-28T03:45:50;1.40;1.00
17992;DHT22;9121;50.926;5.340;2023-02-28T03:48:21;1.40;1.00
17992;DHT22;9121;50.926;5.340;2023-02-28T03:50:53;1.30;1.00
17992;DHT22;9121;50.926;5.340;2023-02-28T03:53:26;1.30;1.00
17992;DHT22;9121;50.926;5.340;2023-02-28T03:55:56;1.20;1.00
17992;DHT22;9121;50.926;5.340;2023-02-28T03:58:29;1.30;1.00
17992;DHT22;9121;50.926;5.340;2023-02-28T04:01:03;1.30;1.00
17992;DHT22;9121;50.926;5.340;2023-02-28T04:03:34;1.10;1.00
17992;DHT22;9121;50.926;5.340;2023-02-28T04:06:03;0.90;1.50
17992;DHT22;9121;50.926;5.340;2023-02-28T04:08:30;0.90;6.30
17992;DHT22;9121;50.926;5.340;2023-02-28T04:11:01;0.80;11.40
17992;DHT22;9121;50.926;5.340;2023-02-28T04:13:31;0.80;15.90
17992;DHT22;9121;50.926;5.340;2023-02-28T04:15:58;0.80;17.40
17992;DHT22;9121;50.926;5.340;2023-02-28T04:18:25;0.90;16.00
17992;DHT22;9121;50.926;5.340;2023-02-28T04:20:52;0.80;13.60
17992;DHT22;9121;50.926;5.340;2023-02-28T04:23:20;0.80;15.70
17992;DHT22;9121;50.926;5.340;2023-02-28T04:25:47;0.70;15.00
17992;DHT22;9121;50.926;5.340;2023-02-28T04:28:16;0.70;17.80
17992;DHT22;9121;50.926;5.340;2023-02-28T04:30:43;0.70;20.60
17992;DHT22;9121;50.926;5.340;2023-02-28T04:33:10;0.60;20.20
17992;DHT22;9121;50.926;5.340;2023-02-28T04:35:37;0.60;22.80
17992;DHT22;9121;50.926;5.340;2023-02-28T04:38:04;0.70;23.90
17992;DHT22;9121;50.926;5.340;2023-02-28T04:40:32;0.80;20.80
17992;DHT22;9121;50.926;5.340;2023-02-28T04:42:59;0.80;19.60
17992;DHT22;9121;50.926;5.340;2023-02-28T04:45:26;0.70;18.70
17992;DHT22;9121;50.926;5.340;2023-02-28T04:47:55;0.70;20.20
17992;DHT22;9121;50.926;5.340;2023-02-28T04:50:22;0.70;21.20
17992;DHT22;9121;50.926;5.340;2023-02-28T04:52:49;0.70;21.00
17992;DHT22;9121;50.926;5.340;2023-02-28T04:55:16;0.80;21.60
17992;DHT22;9121;50.926;5.340;2023-02-28T04:57:45;0.80;19.10
17992;DHT22;9121;50.926;5.340;2023-02-28T05:00:12;0.80;17.20
17992;DHT22;9121;50.926;5.340;2023-02-28T05:02:42;0.80;15.60
17992;DHT22;9121;50.926;5.340;2023-02-28T05:05:09;0.70;14.40
17992;DHT22;9121;50.926;5.340;2023-02-28T05:07:37;0.80;17.50
17992;DHT22;9121;50.926;5.340;2023-02-28T05:10:05;0.80;18.40
17992;DHT22;9121;50.926;5.340;2023-02-28T05:12:32;0.80;15.00
17992;DHT22;9121;50.926;5.340;2023-02-28T05:15:00;0.70;14.70
17992;DHT22;9121;50.926;5.340;2023-02-28T05:17:27;0.80;22.40
17992;DHT22;9121;50.926;5.340;2023-02-28T05:19:54;0.90;20.30
17992;DHT22;9121;50.926;5.340;2023-02-28T05:22:21;1.00;17.70
17992;DHT22;9121;50.926;5.340;2023-02-28T05:24:48;1.00;13.40
17992;DHT22;9121;50.926;5.340;2023-02-28T05:27:15;1.00;7.70
17992;DHT22;9121;50.926;5.340;2023-02-28T05:29:42;0.90;5.80
17992;DHT22;9121;50.926;5.340;2023-02-28T05:32:11;0.80;9.80
17992;DHT22;9121;50.926;5.340;2023-02-28T05:34:38;0.80;13.60
17992;DHT22;9121;50.926;5.340;2023-02-28T05:37:06;0.90;16.20
17992;DHT22;9121;50.926;5.340;2023-02-28T05:39:33;0.90;11.60
17992;DHT22;9121;50.926;5.340;2023-02-28T05:42:00;0.80;8.50
17992;DHT22;9121;50.926;5.340;2023-02-28T05:44:27;0.70;12.70
17992;DHT22;9121;50.926;5.340;2023-02-28T05:46:54;0.80;13.60
17992;DHT22;9121;50.926;5.340;2023-02-28T05:49:22;0.70;11.60
17992;DHT22;9121;50.926;5.340;2023-02-28T05:51:49;0.70;11.30
17992;DHT22;9121;50.926;5.340;2023-02-28T05:54:16;0.70;12.50
17992;DHT22;9121;50.926;5.340;2023-02-28T05:56:43;0.70;12.50
17992;DHT22;9121;50.926;5.340;2023-02-28T05:59:11;0.70;14.20
17992;DHT22;9121;50.926;5.340;2023-02-28T06:01:40;0.70;15.90
17992;DHT22;9121;50.926;5.340;2023-02-28T06:04:09;0.60;15.30
17992;DHT22;9121;50.926;5.340;2023-02-28T06:06:38;0.60;17.40
17992;DHT22;9121;50.926;5.340;2023-02-28T06:09:05;0.60;16.70
17992;DHT22;9121;50.926;5.340;2023-02-28T06:11:32;0.60;15.00
17992;DHT22;9121;50.926;5.340;2023-02-28T06:14:00;0.60;17.10
17992;DHT22;9121;50.926;5.340;2023-02-28T06:16:28;0.50;16.00
17992;DHT22;9121;50.926;5.340;2023-02-28T06:18:57;0.50;22.00
17992;DHT22;9121;50.926;5.340;2023-02-28T06:21:24;0.50;23.40
17992;DHT22;9121;50.926;5.340;2023-02-28T06:23:54;0.60;28.20
17992;DHT22;9121;50.926;5.340;2023-02-28T06:26:22;0.70;18.10
17992;DHT22;9121;50.926;5.340;2023-02-28T06:28:49;0.70;12.60
17992;DHT22;9121;50.926;5.340;2023-02-28T06:31:17;0.80;16.20
17992;DHT22;9121;50.926;5.340;2023-02-28T06:33:45;0.90;14.90
17992;DHT22;9121;50.926;5.340;2023-02-28T06:36:14;1.20;7.40
17992;DHT22;9121;50.926;5.340;2023-02-28T06:38:41;1.40;1.00
17992;DHT22;9121;50.926;5.340;2023-02-28T06:41:10;1.70;1.00
17992;DHT22;9121;50.926;5.340;2023-02-28T06:43:39;1.60;1.00
17992;DHT22;9121;50.926;5.340;2023-02-28T06:46:10;1.40;1.00
17992;DHT22;9121;50.926;5.340;2023-02-28T06:48:39;1.10;1.00
17992;DHT22;9121;50.926;5.340;2023-02-28T06:51:08;0.90;1.00
17992;DHT22;9121;50.926;5.340;2023-02-28T06:53:36;0.80;1.00
17992;DHT22;9121;50.926;5.340;2023-02-28T06:56:07;0.70;1.00
17992;DHT22;9121;50.926;5.340;2023-02-28T06:58:36;0.50;1.00
17992;DHT22;9121;50.926;5.340;2023-02-28T07:01:04;0.50;5.40
17992;DHT22;9121;50.926;5.340;2023-02-28T07:03:31;0.50;9.80
17992;DHT22;9121;50.926;5.340;2023-02-28T07:05:59;0.50;13.70
17992;DHT22;9121;50.926;5.340;2023-02-28T07:08:26;0.60;9.90
17992;DHT22;9121;50.926;5.340;2023-02-28T07:10:54;0.70;6.20
17992;DHT22;9121;50.926;5.340;2023-02-28T07:13:21;0.60;1.00
17992;DHT22;9121;50.926;5.340;2023-02-28T07:15:55;0.70;17.60
17992;DHT22;9121;50.926;5.340;2023-02-28T07:18:22;0.60;5.00
17992;DHT22;9121;50.926;5.340;2023-02-28T07:20:49;0.40;2.60
17992;DHT22;9121;50.926;5.340;2023-02-28T07:23:17;0.40;7.20
17992;DHT22;9121;50.926;5.340;2023-02-28T07:25:44;0.50;9.10
17992;DHT22;9121;50.926;5.340;2023-02-28T07:28:12;0.50;3.80
17992;DHT22;9121;50.926;5.340;2023-02-28T07:30:39;0.50;3.20
17992;DHT22;9121;50.926;5.340;2023-02-28T07:33:08;0.60;2.80
17992;DHT22;9121;50.926;5.340;2023-02-28T07:35:35;0.60;1.00
17992;DHT22;9121;50.926;5.340;2023-02-28T07:38:02;0.60;1.00
17992;DHT22;9121;50.926;5.340;2023-02-28T07:40:30;0.60;1.00
17992;DHT22;9121;50.926;5.340;2023-02-28T07:42:59;0.80;1.00
17992;DHT22;9121;50.926;5.340;2023-02-28T07:45:26;0.90;1.00
17992;DHT22;9121;50.926;5.340;2023-02-28T07:47:54;1.00;1.00
17992;DHT22;9121;50.926;5.340;2023-02-28T07:50:23;1.10;1.00
17992;DHT22;9121;50.926;5.340;2023-02-28T07:52:50;1.10;1.00
17992;DHT22;9121;50.926;5.340;2023-02-28T07:55:17;1.10;1.00
17992;DHT22;9121;50.926;5.340;2023-02-28T07:57:44;1.20;1.00
17992;DHT22;9121;50.926;5.340;2023-02-28T08:00:12;1.40;1.00
17992;DHT22;9121;50.926;5.340;2023-02-28T08:02:39;1.60;1.00
17992;DHT22;9121;50.926;5.340;2023-02-28T08:05:07;1.90;1.00
17992;DHT22;9121;50.926;5.340;2023-02-28T08:07:35;2.00;1.00
17992;DHT22;9121;50.926;5.340;2023-02-28T08:10:02;2.10;1.00
17992;DHT22;9121;50.926;5.340;2023-02-28T08:12:31;2.20;1.00
17992;DHT22;9121;50.926;5.340;2023-02-28T08:14:58;2.20;1.00
17992;DHT22;9121;50.926;5.340;2023-02-28T08:17:25;2.20;1.00
17992;DHT22;9121;50.926;5.340;2023-02-28T08:19:52;2.30;1.00
17992;DHT22;9121;50.926;5.340;2023-02-28T08:22:19;2.40;1.00
17992;DHT22;9121;50.926;5.340;2023-02-28T08:24:47;2.50;1.00
17992;DHT22;9121;50.926;5.340;2023-02-28T08:27:14;2.50;1.00
17992;DHT22;9121;50.926;5.340;2023-02-28T08:29:41;2.70;1.00
17992;DHT22;9121;50.926;5.340;2023-02-28T08:32:08;2.80;1.00
17992;DHT22;9121;50.926;5.340;2023-02-28T08:34:35;2.80;1.00
17992;DHT22;9121;50.926;5.340;2023-02-28T08:37:02;2.90;1.00
17992;DHT22;9121;50.926;5.340;2023-02-28T08:39:29;2.80;1.00
17992;DHT22;9121;50.926;5.340;2023-02-28T08:41:57;2.80;1.00
17992;DHT22;9121;50.926;5.340;2023-02-28T08:44:24;2.80;1.00
17992;DHT22;9121;50.926;5.340;2023-02-28T08:46:53;2.70;1.00
17992;DHT22;9121;50.926;5.340;2023-02-28T08:49:20;2.70;1.00
17992;DHT22;9121;50.926;5.340;2023-02-28T08:51:46;2.90;1.00
17992;DHT22;9121;50.926;5.340;2023-02-28T08:54:13;3.10;1.00
17992;DHT22;9121;50.926;5.340;2023-02-28T08:56:45;3.00;1.00
17992;DHT22;9121;50.926;5.340;2023-02-28T08:59:13;3.00;1.00
17992;DHT22;9121;50.926;5.340;2023-02-28T09:01:41;3.10;1.00
17992;DHT22;9121;50.926;5.340;2023-02-28T09:04:09;2.90;1.00
17992;DHT22;9121;50.926;5.340;2023-02-28T09:06:37;2.80;1.00
17992;DHT22;9121;50.926;5.340;2023-02-28T09:09:04;3.00;1.00
17992;DHT22;9121;50.926;5.340;2023-02-28T09:11:33;3.20;1.00
17992;DHT22;9121;50.926;5.340;2023-02-28T09:14:01;3.20;1.00
17992;DHT22;9121;50.926;5.340;2023-02-28T09:16:31;3.20;1.00
17992;DHT22;9121;50.926;5.340;2023-02-28T09:18:58;3.20;1.00
17992;DHT22;9121;50.926;5.340;2023-02-28T09:21:26;3.20;1.00
17992;DHT22;9121;50.926;5.340;2023-02-28T09:23:53;3.30;1.00
17992;DHT22;9121;50.926;5.340;2023-02-28T09:26:22;3.30;99.90
17992;DHT22;9121;50.926;5.340;2023-02-28T09:28:50;3.20;99.90
17992;DHT22;9121;50.926;5.340;2023-02-28T09:31:19;3.20;99.90
17992;DHT22;9121;50.926;5.340;2023-02-28T09:33:49;3.40;99.90
17992;DHT22;9121;50.926;5.340;2023-02-28T09:36:17;3.40;99.90
17992;DHT22;9121;50.926;5.340;2023-02-28T09:38:44;3.30;1.00
17992;DHT22;9121;50.926;5.340;2023-02-28T09:41:14;3.40;1.00
17992;DHT22;9121;50.926;5.340;2023-02-28T09:43:44;3.60;1.00
17992;DHT22;9121;50.926;5.340;2023-02-28T09:46:21;3.70;99.90
17992;DHT22;9121;50.926;5.340;2023-02-28T09:48:53;3.90;1.00
17992;DHT22;9121;50.926;5.340;2023-02-28T09:51:36;3.70;1.00
17992;DHT22;9121;50.926;5.340;2023-02-28T09:54:05;3.70;1.00
17992;DHT22;9121;50.926;5.340;2023-02-28T09:56:36;3.70;1.00
17992;DHT22;9121;50.926;5.340;2023-02-28T09:59:11;3.70;1.00
17992;DHT22;9121;50.926;5.340;2023-02-28T10:01:47;3.70;1.00
17992;DHT22;9121;50.926;5.340;2023-02-28T10:04:33;3.80;1.00
17992;DHT22;9121;50.926;5.340;2023-02-28T10:07:04;3.80;1.00
17992;DHT22;9121;50.926;5.340;2023-02-28T10:09:35;4.00;99.90
17992;DHT22;9121;50.926;5.340;2023-02-28T10:12:05;4.10;1.00
17992;DHT22;9121;50.926;5.340;2023-02-28T10:14:34;4.20;1.00
17992;DHT22;9121;50.926;5.340;2023-02-28T10:17:04;4.20;74.80
17992;DHT22;9121;50.926;5.340;2023-02-28T10:19:40;4.10;99.90
17992;DHT22;9121;50.926;5.340;2023-02-28T10:22:11;4.00;99.90
17992;DHT22;9121;50.926;5.340;2023-02-28T10:24:41;4.10;1.00
17992;DHT22;9121;50.926;5.340;2023-02-28T10:27:14;4.20;1.00
17992;DHT22;9121;50.926;5.340;2023-02-28T10:29:44;4.40;1.00
17992;DHT22;9121;50.926;5.340;2023-02-28T10:32:13;4.30;1.00
17992;DHT22;9121;50.926;5.340;2023-02-28T10:34:42;4.30;1.00
17992;DHT22;9121;50.926;5.340;2023-02-28T10:37:11;4.40;1.00
17992;DHT22;9121;50.926;5.340;2023-02-28T10:39:41;4.20;99.90
17992;DHT22;9121;50.926;5.340;2023-02-28T10:42:26;4.00;1.00
17992;DHT22;9121;50.926;5.340;2023-02-28T10:45:11;3.70;99.90
17992;DHT22;9121;50.926;5.340;2023-02-28T10:47:49;3.60;99.90
17992;DHT22;9121;50.926;5.340;2023-02-28T10:50:30;3.70;1.00
17992;DHT22;9121;50.926;5.340;2023-02-28T10:53:15;3.80;99.90
17992;DHT22;9121;50.926;5.340;2023-02-28T10:55:43;4.00;1.00
17992;DHT22;9121;50.926;5.340;2023-02-28T10:58:21;4.00;75.20
17992;DHT22;9121;50.926;5.340;2023-02-28T11:00:49;4.00;99.90
17992;DHT22;9121;50.926;5.340;2023-02-28T11:03:31;3.90;1.00
17992;DHT22;9121;50.926;5.340;2023-02-28T11:06:05;4.10;1.00
17992;DHT22;9121;50.926;5.340;2023-02-28T11:08:34;4.50;67.60
17992;DHT22;9121;50.926;5.340;2023-02-28T11:11:04;4.80;99.90
17992;DHT22;9121;50.926;5.340;2023-02-28T11:13:34;4.90;99.90
17992;DHT22;9121;50.926;5.340;2023-02-28T11:16:03;4.80;1.00
17992;DHT22;9121;50.926;5.340;2023-02-28T11:18:37;4.40;1.00
17992;DHT22;9121;50.926;5.340;2023-02-28T11:21:08;4.40;1.00
17992;DHT22;9121;50.926;5.340;2023-02-28T11:23:39;4.50;42.70
17992;DHT22;9121;50.926;5.340;2023-02-28T11:26:07;4.70;1.00
17992;DHT22;9121;50.926;5.340;2023-02-28T11:28:38;4.70;99.90
17992;DHT22;9121;50.926;5.340;2023-02-28T11:31:16;4.70;1.00
17992;DHT22;9121;50.926;5.340;2023-02-28T11:33:46;4.70;99.90
17992;DHT22;9121;50.926;5.340;2023-02-28T11:36:20;4.90;8.80
17992;DHT22;9121;50.926;5.340;2023-02-28T11:38:51;5.10;1.00
17992;DHT22;9121;50.926;5.340;2023-02-28T11:41:39;5.20;1.00
17992;DHT22;9121;50.926;5.340;2023-02-28T11:44:22;5.30;99.90
17992;DHT22;9121;50.926;5.340;2023-02-28T11:46:52;5.50;99.90
17992;DHT22;9121;50.926;5.340;2023-02-28T11:49:31;5.50;99.90
17992;DHT22;9121;50.926;5.340;2023-02-28T11:52:09;5.60;1.00
17992;DHT22;9121;50.926;5.340;2023-02-28T11:54:59;5.20;99.90
17992;DHT22;9121;50.926;5.340;2023-02-28T11:57:58;5.40;99.90
17992;DHT22;9121;50.926;5.340;2023-02-28T12:00:40;5.20;1.00
17992;DHT22;9121;50.926;5.340;2023-02-28T12:03:19;5.60;1.00
17992;DHT22;9121;50.926;5.340;2023-02-28T12:05:54;5.60;99.90
17992;DHT22;9121;50.926;5.340;2023-02-28T12:08:29;5.70;99.90
17992;DHT22;9121;50.926;5.340;2023-02-28T12:11:11;5.80;99.90
17992;DHT22;9121;50.926;5.340;2023-02-28T12:13:48;6.00;1.00
17992;DHT22;9121;50.926;5.340;2023-02-28T12:16:32;6.00;1.00
17992;DHT22;9121;50.926;5.340;2023-02-28T12:19:13;6.10;1.00
17992;DHT22;9121;50.926;5.340;2023-02-28T12:21:53;6.00;99.90
17992;DHT22;9121;50.926;5.340;2023-02-28T12:24:39;6.30;99.90
17992;DHT22;9121;50.926;5.340;2023-02-28T12:27:14;6.20;68.30
17992;DHT22;9121;50.926;5.340;2023-02-28T12:29:47;6.00;87.70
17992;DHT22;9121;50.926;5.340;2023-02-28T12:32:19;6.10;99.90
17992;DHT22;9121;50.926;5.340;2023-02-28T12:34:50;6.40;99.90
17992;DHT22;9121;50.926;5.340;2023-02-28T12:37:24;6.60;99.90
17992;DHT22;9121;50.926;5.340;2023-02-28T12:39:59;6.40;99.90
17992;DHT22;9121;50.926;5.340;2023-02-28T12:42:29;6.30;99.90
17992;DHT22;9121;50.926;5.340;2023-02-28T12:44:59;6.60;1.00
17992;DHT22;9121;50.926;5.340;2023-02-28T12:47:27;6.80;99.90
17992;DHT22;9121;50.926;5.340;2023-02-28T12:49:58;7.10;1.00
17992;DHT22;9121;50.926;5.340;2023-02-28T12:52:34;7.40;1.00
17992;DHT22;9121;50.926;5.340;2023-02-28T12:55:06;7.80;1.00
17992;DHT22;9121;50.926;5.340;2023-02-28T12:57:40;7.80;1.00
17992;DHT22;9121;50.926;5.340;2023-02-28T13:00:12;7.80;1.00
17992;DHT22;9121;50.926;5.340;2023-02-28T13:03:01;8.30;99.90
17992;DHT22;9121;50.926;5.340;2023-02-28T13:06:05;8.30;1.00
17992;DHT22;9121;50.926;5.340;2023-02-28T13:09:04;8.90;99.90
17992;DHT22;9121;50.926;5.340;2023-02-28T13:11:39;9.10;1.00
17992;DHT22;9121;50.926;5.340;2023-02-28T13:14:19;9.10;1.00
17992;DHT22;9121;50.926;5.340;2023-02-28T13:17:09;8.70;26.00
17992;DHT22;9121;50.926;5.340;2023-02-28T13:19:39;8.70;99.90
17992;DHT22;9121;50.926;5.340;2023-02-28T13:22:16;8.30;1.00
17992;DHT22;9121;50.926;5.340;2023-02-28T13:24:46;8.10;99.90
17992;DHT22;9121;50.926;5.340;2023-02-28T13:27:33;7.70;99.90
17992;DHT22;9121;50.926;5.340;2023-02-28T13:30:00;7.10;99.90
17992;DHT22;9121;50.926;5.340;2023-02-28T13:32:36;7.40;99.90
17992;DHT22;9121;50.926;5.340;2023-02-28T13:35:42;7.60;99.90
17992;DHT22;9121;50.926;5.340;2023-02-28T13:38:35;8.00;1.00
17992;DHT22;9121;50.926;5.340;2023-02-28T13:44:09;8.60;1.00
17992;DHT22;9121;50.926;5.340;2023-02-28T13:50:15;8.70;99.90
17992;DHT22;9121;50.926;5.340;2023-02-28T13:52:52;8.90;99.90
17992;DHT22;9121;50.926;5.340;2023-02-28T13:55:27;8.70;99.90
17992;DHT22;9121;50.926;5.340;2023-02-28T13:58:12;8.30;1.00
17992;DHT22;9121;50.926;5.340;2023-02-28T14:01:00;7.60;1.00
17992;DHT22;9121;50.926;5.340;2023-02-28T14:03:46;7.00;1.00
17992;DHT22;9121;50.926;5.340;2023-02-28T14:06:23;7.00;1.00
17992;DHT22;9121;50.926;5.340;2023-02-28T14:08:58;6.70;99.90
17992;DHT22;9121;50.926;5.340;2023-02-28T14:11:32;6.80;1.00
17992;DHT22;9121;50.926;5.340;2023-02-28T14:14:00;6.90;99.90
17992;DHT22;9121;50.926;5.340;2023-02-28T14:16:37;7.10;1.00
17992;DHT22;9121;50.926;5.340;2023-02-28T14:19:13;7.40;1.00
17992;DHT22;9121;50.926;5.340;2023-02-28T14:21:50;7.80;1.00
17992;DHT22;9121;50.926;5.340;2023-02-28T14:24:39;8.20;1.00
17992;DHT22;9121;50.926;5.340;2023-02-28T14:27:36;8.30;1.00
17992;DHT22;9121;50.926;5.340;2023-02-28T14:33:22;8.10;47.10
17992;DHT22;9121;50.926;5.340;2023-02-28T14:36:08;7.70;1.00
17992;DHT22;9121;50.926;5.340;2023-02-28T14:38:40;7.20;99.90
17992;DHT22;9121;50.926;5.340;2023-02-28T14:41:22;6.40;77.30
17992;DHT22;9121;50.926;5.340;2023-02-28T14:43:52;6.20;99.90
17992;DHT22;9121;50.926;5.340;2023-02-28T14:46:20;6.40;99.90
17992;DHT22;9121;50.926;5.340;2023-02-28T14:48:50;6.40;99.90
17992;DHT22;9121;50.926;5.340;2023-02-28T14:51:21;6.20;99.90
17992;DHT22;9121;50.926;5.340;2023-02-28T14:53:51;6.20;99.90
17992;DHT22;9121;50.926;5.340;2023-02-28T14:56:24;6.10;99.90
17992;DHT22;9121;50.926;5.340;2023-02-28T14:58:53;6.10;1.00
17992;DHT22;9121;50.926;5.340;2023-02-28T15:01:21;6.10;1.00
17992;DHT22;9121;50.926;5.340;2023-02-28T15:03:59;6.10;1.00
17992;DHT22;9121;50.926;5.340;2023-02-28T15:06:27;5.90;1.00
17992;DHT22;9121;50.926;5.340;2023-02-28T15:09:15;5.70;1.00
17992;DHT22;9121;50.926;5.340;2023-02-28T15:11:46;5.80;1.00
17992;DHT22;9121;50.926;5.340;2023-02-28T15:14:17;5.90;1.00
17992;DHT22;9121;50.926;5.340;2023-02-28T15:16:48;5.90;1.00
17992;DHT22;9121;50.926;5.340;2023-02-28T15:19:20;5.90;16.80
17992;DHT22;9121;50.926;5.340;2023-02-28T15:21:53;5.80;99.90
17992;DHT22;9121;50.926;5.340;2023-02-28T15:24:35;5.70;1.00
17992;DHT22;9121;50.926;5.340;2023-02-28T15:27:04;5.80;99.90
17992;DHT22;9121;50.926;5.340;2023-02-28T15:29:43;5.80;1.00
17992;DHT22;9121;50.926;5.340;2023-02-28T15:32:24;5.80;20.80
17992;DHT22;9121;50.926;5.340;2023-02-28T15:34:53;5.90;1.00
17992;DHT22;9121;50.926;5.340;2023-02-28T15:37:37;5.90;1.00
17992;DHT22;9121;50.926;5.340;2023-02-28T15:40:12;5.80;1.00
17992;DHT22;9121;50.926;5.340;2023-02-28T15:42:39;5.90;99.90
17992;DHT22;9121;50.926;5.340;2023-02-28T15:45:27;5.90;99.90
17992;DHT22;9121;50.926;5.340;2023-02-28T15:47:55;5.80;99.90
17992;DHT22;9121;50.926;5.340;2023-02-28T15:50:24;5.80;99.90
17992;DHT22;9121;50.926;5.340;2023-02-28T15:52:51;5.80;99.90
17992;DHT22;9121;50.926;5.340;2023-02-28T15:55:20;5.80;1.00
17992;DHT22;9121;50.926;5.340;2023-02-28T15:57:50;5.80;1.00
17992;DHT22;9121;50.926;5.340;2023-02-28T16:00:20;5.80;1.00
17992;DHT22;9121;50.926;5.340;2023-02-28T16:02:49;5.80;1.00
17992;DHT22;9121;50.926;5.340;2023-02-28T16:05:22;5.70;1.00
17992;DHT22;9121;50.926;5.340;2023-02-28T16:07:56;5.80;1.00
17992;DHT22;9121;50.926;5.340;2023-02-28T16:10:25;5.70;1.00
17992;DHT22;9121;50.926;5.340;2023-02-28T16:12:53;5.80;1.00
17992;DHT22;9121;50.926;5.340;2023-02-28T16:15:24;5.90;95.00
17992;DHT22;9121;50.926;5.340;2023-02-28T16:17:52;5.90;99.90
17992;DHT22;9121;50.926;5.340;2023-02-28T16:20:21;5.90;1.00
17992;DHT22;9121;50.926;5.340;2023-02-28T16:22:48;5.80;1.00
17992;DHT22;9121;50.926;5.340;2023-02-28T16:25:19;5.80;72.10
17992;DHT22;9121;50.926;5.340;2023-02-28T16:27:48;5.80;1.00
17992;DHT22;9121;50.926;5.340;2023-02-28T16:30:19;5.80;1.00
17992;DHT22;9121;50.926;5.340;2023-02-28T16:32:47;5.70;1.00
17992;DHT22;9121;50.926;5.340;2023-02-28T16:35:15;5.70;1.00
17992;DHT22;9121;50.926;5.340;2023-02-28T16:37:43;5.70;63.80
17992;DHT22;9121;50.926;5.340;2023-02-28T16:40:14;5.60;1.00
17992;DHT22;9121;50.926;5.340;2023-02-28T16:42:43;5.50;2.20
17992;DHT22;9121;50.926;5.340;2023-02-28T16:45:16;5.50;1.00
17992;DHT22;9121;50.926;5.340;2023-02-28T16:47:45;5.50;99.90
17992;DHT22;9121;50.926;5.340;2023-02-28T16:50:16;5.50;99.90
17992;DHT22;9121;50.926;5.340;2023-02-28T16:52:43;5.50;99.90
17992;DHT22;9121;50.926;5.340;2023-02-28T16:55:10;5.50;99.90